Time;durP1;ratioP1;P1;durP2;ratioP2;P2;SDS_P1;SDS_P2;PMS_P1;PMS_P2;Temp;Humidity;BMP_temperature;BMP_pressure;BME280_temperature;BME280_humidity;BME280_pressure;Samples;Min_cycle;Max_cycle;Signal;HPM_P1;HPM_P2
2022/01/17 00:01:29;;;;;;;76.78;42.80;;;-1.50;99.90;;;;;;5034815;28;20253;-89
2022/01/17 00:03:54;;;;;;;84.45;41.47;;;-1.50;99.90;;;;;;5034474;28;20178;-88
2022/01/17 00:06:20;;;;;;;87.30;42.70;;;-1.40;99.90;;;;;;5037964;28;20217;-89
2022/01/17 00:08:46;;;;;;;89.47;44.30;;;-1.40;99.90;;;;;;5038085;28;20484;-89
2022/01/17 00:11:12;;;;;;;77.80;42.33;;;-1.40;99.90;;;;;;5037936;28;20697;-88
2022/01/17 00:13:39;;;;;;;79.22;43.00;;;-1.40;99.90;;;;;;5045024;28;20411;-88
2022/01/17 00:16:10;;;;;;;81.45;44.10;;;-1.40;99.90;;;;;;5046696;28;20208;-89
2022/01/17 00:21:04;;;;;;;77.28;41.38;;;-1.40;99.90;;;;;;5064023;28;20277;-88
2022/01/17 00:23:31;;;;;;;93.95;46.67;;;-1.30;99.90;;;;;;5062068;28;20182;-88
2022/01/17 00:25:57;;;;;;;90.68;45.47;;;-1.30;99.90;;;;;;5057429;28;20221;-88
2022/01/17 00:28:23;;;;;;;84.30;42.00;;;-1.30;99.90;;;;;;5054816;28;20181;-89
2022/01/17 00:30:49;;;;;;;90.10;45.10;;;-1.20;99.90;;;;;;5055436;28;20438;-88
2022/01/17 00:33:15;;;;;;;93.28;44.88;;;-1.20;99.90;;;;;;5055066;28;20377;-89
2022/01/17 00:35:41;;;;;;;84.93;42.90;;;-1.10;99.90;;;;;;5055421;28;20189;-88
2022/01/17 00:38:07;;;;;;;87.20;44.03;;;-1.10;99.90;;;;;;5037664;28;20185;-88
2022/01/17 00:40:33;;;;;;;73.47;42.58;;;-1.00;99.90;;;;;;5037160;28;20640;-88
2022/01/17 00:42:59;;;;;;;80.78;43.28;;;-1.00;99.90;;;;;;5037202;28;20178;-89
2022/01/17 00:45:27;;;;;;;95.33;44.53;;;-0.90;99.90;;;;;;5054710;28;20305;-88
2022/01/17 00:47:57;;;;;;;85.15;42.65;;;-0.90;99.90;;;;;;5036967;28;20185;-88
2022/01/17 00:50:25;;;;;;;82.70;43.83;;;-0.80;99.90;;;;;;5037308;28;20206;-89
2022/01/17 00:52:51;;;;;;;77.70;42.80;;;-0.80;99.90;;;;;;5037075;28;20711;-89
2022/01/17 00:55:17;;;;;;;88.30;43.75;;;-0.70;99.90;;;;;;5036700;28;20697;-89
2022/01/17 00:57:43;;;;;;;75.65;43.47;;;-0.70;99.90;;;;;;5036961;28;20182;-88
2022/01/17 01:00:10;;;;;;;87.83;43.90;;;-0.70;99.90;;;;;;5036916;28;20205;-89
2022/01/17 01:02:37;;;;;;;80.25;42.58;;;-0.60;99.90;;;;;;5054501;28;20410;-89
2022/01/17 01:05:04;;;;;;;75.47;40.75;;;-0.60;99.90;;;;;;5036781;28;20218;-89
2022/01/17 01:07:30;;;;;;;73.72;40.53;;;-0.60;99.90;;;;;;5040105;28;20272;-89
2022/01/17 01:10:06;;;;;;;77.03;40.40;;;-0.70;99.90;;;;;;5048485;28;20202;-88
2022/01/17 01:12:31;;;;;;;84.15;43.67;;;-0.70;99.90;;;;;;5044678;28;20497;-88
2022/01/17 01:14:58;;;;;;;79.30;40.57;;;-0.80;99.90;;;;;;5042557;28;20210;-88
2022/01/17 01:17:36;;;;;;;78.80;43.90;;;-0.80;99.90;;;;;;5033417;28;20435;-88
2022/01/17 01:20:45;;;;;;;76.75;41.70;;;-0.80;99.90;;;;;;5033188;28;20280;-89
2022/01/17 01:28:35;;;;;;;73.85;39.88;;;-0.60;99.90;;;;;;5034688;28;20246;-88
2022/01/17 01:31:04;;;;;;;76.03;39.93;;;-0.50;99.90;;;;;;5034687;28;20231;-88
2022/01/17 01:33:37;;;;;;;74.60;41.15;;;-0.50;99.90;;;;;;5033047;28;20175;-88
2022/01/17 01:36:12;;;;;;;76.32;40.03;;;-0.40;99.90;;;;;;5034616;28;20194;-89
2022/01/17 01:38:42;;;;;;;67.22;39.47;;;-0.40;99.90;;;;;;5037887;28;20193;-89
2022/01/17 01:41:08;;;;;;;74.97;41.63;;;-0.30;99.90;;;;;;5037062;28;20668;-89
2022/01/17 01:43:34;;;;;;;66.93;37.47;;;-0.30;99.90;;;;;;5043239;28;20186;-87
2022/01/17 01:46:00;;;;;;;65.90;37.80;;;-0.20;99.90;;;;;;5039293;28;20481;-89
2022/01/17 01:48:28;;;;;;;73.45;38.33;;;-0.20;99.90;;;;;;5037041;28;20423;-88
2022/01/17 01:50:53;;;;;;;71.90;38.85;;;-0.20;99.90;;;;;;5037377;28;20199;-88
2022/01/17 01:53:19;;;;;;;79.10;38.17;;;-0.20;99.90;;;;;;5037226;28;20186;-89
2022/01/17 01:55:45;;;;;;;71.37;37.23;;;-0.10;99.90;;;;;;5037487;28;20529;-88
2022/01/17 01:58:11;;;;;;;78.07;37.33;;;-0.10;99.90;;;;;;5038373;28;20428;-89
2022/01/17 02:00:37;;;;;;;69.37;37.90;;;0.00;99.90;;;;;;5037256;28;20474;-89
2022/01/17 02:03:05;;;;;;;66.10;35.60;;;0.00;99.90;;;;;;5037050;28;20416;-89
2022/01/17 02:05:31;;;;;;;67.28;35.10;;;0.10;99.90;;;;;;5036795;28;20222;-89
2022/01/17 02:07:56;;;;;;;61.17;32.90;;;0.20;99.90;;;;;;5036643;28;20242;-89
2022/01/17 02:10:22;;;;;;;63.50;33.13;;;0.20;99.90;;;;;;5036910;28;20714;-89
2022/01/17 02:12:48;;;;;;;71.50;33.90;;;0.30;99.90;;;;;;5041865;28;20648;-88
2022/01/17 02:15:16;;;;;;;59.90;35.17;;;0.40;99.90;;;;;;5054852;28;20204;-89
2022/01/17 02:17:54;;;;;;;59.20;33.22;;;0.50;99.90;;;;;;5038852;28;20221;-89
2022/01/17 02:20:22;;;;;;;61.35;32.53;;;0.60;99.90;;;;;;5036577;28;20210;-88
2022/01/17 02:22:49;;;;;;;60.05;33.30;;;0.70;99.90;;;;;;5036613;28;20209;-89
2022/01/17 02:25:15;;;;;;;58.25;31.60;;;0.70;99.90;;;;;;5036260;28;20226;-89
2022/01/17 02:27:42;;;;;;;67.63;33.73;;;0.80;99.90;;;;;;5038508;28;20216;-87
2022/01/17 02:30:11;;;;;;;66.03;34.63;;;0.80;99.90;;;;;;5036286;28;20422;-89
2022/01/17 02:32:37;;;;;;;55.33;32.25;;;0.80;99.90;;;;;;5036455;28;20611;-89
2022/01/17 02:35:18;;;;;;;64.67;34.10;;;0.90;99.90;;;;;;5036691;28;20209;-88
2022/01/17 02:37:44;;;;;;;70.22;33.83;;;0.90;99.90;;;;;;5036221;28;20900;-89
2022/01/17 02:40:12;;;;;;;57.53;34.03;;;0.90;99.90;;;;;;5037979;28;20226;-89
2022/01/17 02:42:38;;;;;;;62.80;33.83;;;0.90;99.90;;;;;;5038532;28;20210;-90
2022/01/17 02:45:20;;;;;;;58.73;33.30;;;0.90;99.90;;;;;;5041325;28;20256;-90
2022/01/17 02:47:46;;;;;;;69.55;35.58;;;0.90;99.90;;;;;;5043141;28;20414;-89
2022/01/17 02:50:12;;;;;;;60.97;32.15;;;0.90;99.90;;;;;;5048996;28;20253;-90
2022/01/17 02:52:38;;;;;;;56.08;32.17;;;0.90;99.90;;;;;;5036386;28;20186;-89
2022/01/17 02:55:04;;;;;;;67.60;34.63;;;0.90;99.90;;;;;;5038539;28;20754;-89
2022/01/17 02:57:33;;;;;;;63.75;34.22;;;0.90;99.90;;;;;;5035900;28;20426;-89
2022/01/17 03:00:02;;;;;;;55.15;31.17;;;0.90;99.90;;;;;;5035814;28;20202;-90
2022/01/17 03:02:27;;;;;;;60.13;32.22;;;0.90;99.90;;;;;;5035951;28;20181;-89
2022/01/17 03:04:53;;;;;;;61.30;32.33;;;0.90;99.90;;;;;;5035792;28;20305;-89
2022/01/17 03:07:19;;;;;;;58.03;31.07;;;0.90;99.90;;;;;;5046680;28;20233;-89
2022/01/17 03:09:59;;;;;;;57.57;31.90;;;0.90;99.90;;;;;;5040259;28;20198;-90
2022/01/17 03:12:25;;;;;;;56.85;29.67;;;1.00;99.90;;;;;;5040955;28;20529;-89
2022/01/17 03:14:51;;;;;;;58.33;30.07;;;1.00;99.90;;;;;;5072831;28;20248;-89
2022/01/17 03:17:16;;;;;;;46.37;25.93;;;1.10;99.90;;;;;;5041874;28;20189;-89
2022/01/17 03:19:42;;;;;;;50.30;25.77;;;1.10;99.90;;;;;;5038755;28;20485;-88
2022/01/17 03:22:08;;;;;;;44.80;25.63;;;1.20;99.90;;;;;;5038929;28;20200;-89
2022/01/17 03:24:33;;;;;;;49.60;26.03;;;1.20;99.90;;;;;;5040342;28;20209;-89
2022/01/17 03:26:59;;;;;;;45.33;26.60;;;1.30;99.90;;;;;;5038754;28;20188;-89
2022/01/17 03:29:25;;;;;;;43.10;25.20;;;1.40;99.90;;;;;;5038354;28;20257;-89
2022/01/17 03:31:50;;;;;;;52.17;27.57;;;1.50;99.90;;;;;;5038832;28;20186;-88
2022/01/17 03:34:16;;;;;;;48.97;26.20;;;1.50;99.90;;;;;;5038472;28;20189;-89
2022/01/17 03:36:44;;;;;;;37.57;22.47;;;1.60;99.90;;;;;;5039336;28;20198;-88
2022/01/17 03:39:10;;;;;;;49.42;25.40;;;1.70;99.90;;;;;;5038415;28;20193;-89
2022/01/17 03:41:36;;;;;;;42.42;24.60;;;1.70;99.90;;;;;;5056557;28;20197;-89
2022/01/17 03:44:01;;;;;;;47.63;27.00;;;1.80;99.90;;;;;;5056153;28;20535;-89
2022/01/17 03:46:27;;;;;;;42.37;23.63;;;1.80;99.90;;;;;;5038231;28;20206;-88
2022/01/17 03:48:53;;;;;;;45.47;27.03;;;1.90;99.90;;;;;;5055601;28;20184;-89
2022/01/17 03:51:18;;;;;;;42.97;24.13;;;1.90;99.90;;;;;;5037970;28;20197;-89
2022/01/17 03:53:44;;;;;;;46.60;25.20;;;1.90;99.90;;;;;;5038391;28;20830;-89
2022/01/17 03:56:10;;;;;;;175.83;70.13;;;1.90;99.90;;;;;;5055957;28;20197;-88
2022/01/17 03:58:36;;;;;;;121.47;54.73;;;2.00;99.90;;;;;;5038339;28;20456;-88
2022/01/17 04:01:03;;;;;;;73.88;40.03;;;2.00;99.90;;;;;;5037875;28;20250;-88
2022/01/17 04:03:29;;;;;;;47.83;28.90;;;2.00;99.90;;;;;;5037080;28;20213;-88
2022/01/17 04:05:56;;;;;;;52.00;27.33;;;1.90;99.90;;;;;;5041784;28;20241;-88
2022/01/17 04:08:22;;;;;;;52.47;28.33;;;1.90;99.90;;;;;;5039099;28;20364;-88
2022/01/17 04:10:48;;;;;;;48.45;28.50;;;1.90;99.90;;;;;;5049660;28;20187;-88
2022/01/17 04:13:14;;;;;;;47.05;26.67;;;1.80;99.90;;;;;;5050916;28;20186;-89
2022/01/17 04:15:40;;;;;;;47.37;27.40;;;1.80;99.90;;;;;;5040038;28;20264;-89
2022/01/17 04:18:08;;;;;;;46.20;28.27;;;1.70;99.90;;;;;;5034916;28;20190;-89
2022/01/17 04:20:35;;;;;;;46.53;28.88;;;1.70;99.90;;;;;;5036350;28;20417;-89
2022/01/17 04:23:06;;;;;;;47.03;26.98;;;1.70;99.90;;;;;;5034316;28;20182;-87
2022/01/17 04:25:33;;;;;;;42.95;26.83;;;1.70;99.90;;;;;;5035469;28;20222;-88
2022/01/17 04:28:01;;;;;;;51.50;27.17;;;1.70;99.90;;;;;;5034942;28;20178;-88
2022/01/17 04:30:28;;;;;;;43.78;26.42;;;1.70;99.90;;;;;;5034277;28;20292;-88
2022/01/17 04:32:55;;;;;;;45.15;25.38;;;1.70;99.90;;;;;;5035322;28;20178;-88
2022/01/17 04:35:22;;;;;;;41.65;24.27;;;1.70;99.90;;;;;;5033759;28;20229;-88
2022/01/17 04:37:58;;;;;;;46.10;25.92;;;1.70;99.90;;;;;;5033790;28;20182;-88
2022/01/17 04:40:25;;;;;;;40.83;25.05;;;1.70;99.90;;;;;;5033773;28;20198;-89
2022/01/17 04:42:54;;;;;;;45.97;24.77;;;1.70;99.90;;;;;;5034044;28;20178;-88
2022/01/17 04:45:21;;;;;;;43.65;27.85;;;1.70;99.90;;;;;;5034131;28;20594;-88
2022/01/17 04:47:49;;;;;;;46.70;27.05;;;1.60;99.90;;;;;;5034632;28;20261;-89
2022/01/17 04:50:22;;;;;;;41.15;24.13;;;1.60;99.90;;;;;;5033447;28;20651;-89
2022/01/17 04:52:49;;;;;;;38.85;23.20;;;1.60;99.90;;;;;;5033448;28;20213;-88
2022/01/17 04:55:17;;;;;;;40.00;23.77;;;1.60;99.90;;;;;;5033654;28;20263;-89
2022/01/17 04:57:45;;;;;;;39.08;22.52;;;1.50;99.90;;;;;;5033553;28;20590;-89
2022/01/17 05:00:14;;;;;;;41.67;22.65;;;1.60;99.90;;;;;;5040388;28;20202;-89
2022/01/17 05:02:40;;;;;;;41.97;24.13;;;1.60;99.90;;;;;;5031112;28;20194;-88
2022/01/17 05:05:07;;;;;;;36.20;22.67;;;1.60;99.90;;;;;;5032084;28;20214;-89
2022/01/17 05:07:33;;;;;;;34.15;22.00;;;1.60;99.90;;;;;;5031456;28;20234;-88
2022/01/17 05:10:00;;;;;;;43.00;23.25;;;1.60;99.90;;;;;;5031562;28;20206;-89
2022/01/17 05:12:26;;;;;;;40.00;23.02;;;1.60;99.90;;;;;;5032379;28;20217;-89
2022/01/17 05:14:53;;;;;;;45.47;27.45;;;1.60;99.90;;;;;;5031872;28;20600;-89
2022/01/17 05:17:35;;;;;;;47.20;27.73;;;1.60;99.90;;;;;;5033410;28;20632;-89
2022/01/17 05:20:01;;;;;;;47.95;26.23;;;1.60;99.90;;;;;;5033031;28;20647;-88
2022/01/17 05:22:31;;;;;;;39.97;24.90;;;1.50;99.90;;;;;;5031819;28;20179;-88
2022/01/17 05:24:58;;;;;;;48.33;28.80;;;1.50;99.90;;;;;;5031750;28;20777;-88
2022/01/17 05:27:24;;;;;;;46.65;26.27;;;1.40;99.90;;;;;;5030883;28;20170;-87
2022/01/17 05:29:50;;;;;;;39.27;24.40;;;1.40;99.90;;;;;;5023704;28;20260;-88
2022/01/17 05:32:16;;;;;;;44.20;26.33;;;1.40;99.90;;;;;;5011527;28;20425;-87
2022/01/17 05:34:41;;;;;;;41.15;24.80;;;1.30;99.90;;;;;;5027806;28;20569;-88
2022/01/17 05:37:09;;;;;;;42.03;24.83;;;1.30;99.90;;;;;;5018358;28;20236;-89
2022/01/17 05:39:36;;;;;;;40.42;24.88;;;1.30;99.90;;;;;;5020108;28;20181;-88
2022/01/17 05:42:04;;;;;;;42.80;24.08;;;1.30;99.90;;;;;;5034355;28;20178;-89
2022/01/17 05:44:30;;;;;;;101.82;49.00;;;1.20;99.90;;;;;;5031813;28;20210;-89
2022/01/17 05:46:56;;;;;;;55.33;31.52;;;1.20;99.90;;;;;;5012263;28;20651;-88
2022/01/17 05:49:22;;;;;;;43.45;24.08;;;1.20;99.90;;;;;;5023672;28;20182;-88
2022/01/17 05:51:48;;;;;;;38.03;22.03;;;1.20;99.90;;;;;;5033852;28;20179;-87
2022/01/17 05:54:15;;;;;;;39.60;23.97;;;1.20;99.90;;;;;;5018793;28;20186;-88
2022/01/17 05:56:42;;;;;;;35.80;21.75;;;1.30;99.90;;;;;;5017968;28;20494;-89
2022/01/17 05:59:08;;;;;;;39.05;21.10;;;1.30;99.90;;;;;;5024014;28;20258;-89
2022/01/17 06:01:33;;;;;;;33.43;21.23;;;1.30;99.90;;;;;;5034420;28;20190;-89
2022/01/17 06:03:59;;;;;;;36.53;20.70;;;1.30;99.90;;;;;;5033932;28;20198;-89
2022/01/17 06:06:25;;;;;;;39.20;22.53;;;1.40;99.90;;;;;;5033915;28;20203;-88
2022/01/17 06:08:51;;;;;;;36.50;23.27;;;1.40;99.90;;;;;;5026930;28;20442;-89
2022/01/17 06:11:16;;;;;;;46.17;26.27;;;1.40;99.90;;;;;;5022204;28;20206;-89
2022/01/17 06:13:44;;;;;;;47.20;26.83;;;1.40;99.90;;;;;;5019175;28;20187;-87
2022/01/17 06:16:10;;;;;;;34.28;22.67;;;1.30;99.90;;;;;;5019350;28;20683;-89
2022/01/17 06:18:36;;;;;;;40.03;22.60;;;1.30;99.90;;;;;;5032881;28;20193;-89
2022/01/17 06:21:01;;;;;;;37.10;22.67;;;1.30;99.90;;;;;;5021909;28;20238;-89
2022/01/17 06:23:27;;;;;;;38.10;23.00;;;1.30;99.90;;;;;;5019056;28;20428;-89
2022/01/17 06:25:53;;;;;;;49.97;31.00;;;1.30;99.90;;;;;;5026469;28;20223;-89
2022/01/17 06:28:18;;;;;;;53.73;34.40;;;1.30;99.90;;;;;;5027853;28;20651;-88
2022/01/17 06:30:44;;;;;;;53.50;33.23;;;1.20;99.90;;;;;;5033784;28;20276;-88
2022/01/17 06:33:10;;;;;;;63.33;40.60;;;1.10;99.90;;;;;;5036373;28;20458;-88
2022/01/17 06:35:36;;;;;;;54.50;33.73;;;1.20;99.90;;;;;;5028112;28;20214;-89
2022/01/17 06:38:02;;;;;;;39.03;24.40;;;1.10;99.90;;;;;;5041802;28;20253;-89
2022/01/17 06:40:29;;;;;;;48.00;28.33;;;1.10;99.90;;;;;;5021081;28;20427;-89
2022/01/17 06:42:54;;;;;;;39.70;24.05;;;1.10;99.90;;;;;;5016491;28;20193;-89
2022/01/17 06:45:21;;;;;;;126.30;63.37;;;1.10;99.90;;;;;;5028046;28;20222;-89
2022/01/17 06:47:47;;;;;;;168.32;88.75;;;1.00;99.90;;;;;;5025490;28;20486;-89
2022/01/17 06:50:13;;;;;;;118.10;57.80;;;1.10;99.90;;;;;;5019519;28;20230;-88
2022/01/17 06:52:39;;;;;;;82.43;48.60;;;1.10;99.90;;;;;;5016342;28;20418;-88
2022/01/17 06:55:06;;;;;;;49.67;32.03;;;1.00;99.90;;;;;;5017901;28;20292;-89
2022/01/17 06:57:32;;;;;;;46.75;26.92;;;1.00;99.90;;;;;;5018212;28;20179;-89
2022/01/17 06:59:58;;;;;;;46.90;32.10;;;1.00;99.90;;;;;;5009825;28;20210;-89
2022/01/17 07:02:23;;;;;;;44.67;27.20;;;1.00;99.90;;;;;;5004230;28;20508;-89
2022/01/17 07:04:49;;;;;;;43.27;24.27;;;1.00;99.90;;;;;;5025456;28;20529;-89
2022/01/17 07:07:20;;;;;;;45.90;25.70;;;1.00;99.90;;;;;;5017993;28;20228;-88
2022/01/17 07:09:47;;;;;;;45.80;24.30;;;1.10;99.90;;;;;;5045747;28;20203;-89
2022/01/17 07:12:13;;;;;;;52.92;32.10;;;1.10;99.90;;;;;;5014133;28;20179;-89
2022/01/17 07:14:41;;;;;;;76.00;46.67;;;1.10;99.90;;;;;;5025950;28;20253;-88
2022/01/17 07:17:11;;;;;;;154.70;91.25;;;1.20;99.90;;;;;;5012446;28;20214;-89
2022/01/17 07:19:38;;;;;;;111.45;62.10;;;1.20;99.90;;;;;;5019091;28;20202;-89
2022/01/17 07:22:05;;;;;;;70.32;41.67;;;1.20;99.90;;;;;;5031183;28;20186;-89
2022/01/17 07:24:31;;;;;;;32.97;21.17;;;1.20;99.90;;;;;;5016241;28;20210;-88
2022/01/17 07:26:57;;;;;;;32.22;21.58;;;1.20;99.90;;;;;;5035153;28;20190;-88
2022/01/17 07:29:24;;;;;;;41.07;24.87;;;1.30;99.90;;;;;;5018721;28;20212;-89
2022/01/17 07:31:50;;;;;;;39.65;25.25;;;1.30;99.90;;;;;;4993883;28;20650;-89
2022/01/17 07:34:16;;;;;;;44.13;26.00;;;1.40;99.90;;;;;;5007785;28;20190;-89
2022/01/17 07:36:42;;;;;;;35.75;21.98;;;1.40;99.90;;;;;;5017046;28;21120;-89
2022/01/17 07:39:08;;;;;;;31.17;20.30;;;1.40;99.90;;;;;;5005374;28;20190;-88
2022/01/17 07:41:34;;;;;;;37.43;21.93;;;1.50;99.90;;;;;;4992136;28;20582;-89
2022/01/17 07:44:02;;;;;;;28.77;19.10;;;1.60;99.90;;;;;;5007386;28;20467;-89
2022/01/17 07:46:36;;;;;;;30.35;19.70;;;1.60;99.90;;;;;;5010534;28;20202;-89
2022/01/17 07:49:10;;;;;;;24.23;16.83;;;1.80;99.90;;;;;;5024345;28;20264;-88
2022/01/17 07:51:40;;;;;;;23.88;16.15;;;1.90;99.90;;;;;;4994049;28;20241;-88
2022/01/17 07:54:08;;;;;;;21.30;14.07;;;1.90;99.90;;;;;;5016534;28;20270;-88
2022/01/17 07:56:35;;;;;;;21.50;14.65;;;2.10;99.90;;;;;;5017285;28;20210;-89
2022/01/17 07:59:00;;;;;;;61.33;32.67;;;2.20;99.90;;;;;;4997729;28;20297;-89
2022/01/17 08:01:27;;;;;;;26.03;16.83;;;2.30;99.90;;;;;;4999303;28;20329;-91
2022/01/17 08:03:52;;;;;;;24.23;15.00;;;2.40;99.90;;;;;;4998095;28;20637;-89
2022/01/17 08:06:18;;;;;;;25.63;14.83;;;2.50;99.90;;;;;;4997904;28;20617;-88
2022/01/17 08:08:44;;;;;;;20.43;13.70;;;2.50;99.90;;;;;;4996340;28;20191;-88
2022/01/17 08:11:09;;;;;;;21.97;14.17;;;2.60;99.90;;;;;;5001476;28;20465;-89
2022/01/17 08:13:35;;;;;;;21.93;13.20;;;2.60;99.90;;;;;;5018611;28;20221;-89
2022/01/17 08:16:02;;;;;;;23.87;15.60;;;2.70;99.90;;;;;;5018674;28;20187;-88
2022/01/17 08:18:28;;;;;;;26.83;15.23;;;2.70;99.90;;;;;;5013428;28;20405;-89
2022/01/17 08:20:54;;;;;;;28.10;17.98;;;2.80;99.90;;;;;;4993386;28;20549;-89
2022/01/17 08:23:20;;;;;;;26.07;17.27;;;2.80;99.90;;;;;;4999543;28;20193;-88
2022/01/17 08:25:45;;;;;;;25.70;15.93;;;2.90;99.90;;;;;;4990286;28;20561;-89
2022/01/17 08:28:13;;;;;;;23.30;15.63;;;2.90;99.90;;;;;;5018892;28;20195;-88
2022/01/17 08:30:38;;;;;;;26.98;17.27;;;2.90;99.90;;;;;;5022590;28;20203;-88
2022/01/17 08:33:04;;;;;;;26.73;16.50;;;2.90;99.90;;;;;;5007370;28;20189;-88
2022/01/17 08:35:30;;;;;;;26.33;18.00;;;3.00;99.90;;;;;;5007088;28;21105;-88
2022/01/17 08:37:56;;;;;;;28.13;17.63;;;3.00;99.90;;;;;;5007088;28;20264;-88
2022/01/17 08:40:22;;;;;;;27.33;17.90;;;3.00;99.90;;;;;;5015564;28;20303;-88
2022/01/17 08:42:49;;;;;;;29.42;18.98;;;3.00;99.90;;;;;;4997133;28;20187;-89
2022/01/17 08:45:16;;;;;;;25.90;17.60;;;3.00;99.90;;;;;;5002354;28;20221;-89
2022/01/17 08:47:46;;;;;;;32.30;20.48;;;3.10;99.90;;;;;;5011970;28;20592;-88
2022/01/17 08:50:12;;;;;;;32.38;20.15;;;3.00;99.90;;;;;;4992410;28;20209;-87
2022/01/17 08:52:38;;;;;;;26.60;17.90;;;3.10;99.90;;;;;;4993508;28;20737;-86
2022/01/17 08:55:04;;;;;;;27.63;18.05;;;3.10;99.90;;;;;;4993732;28;20297;-88
2022/01/17 08:57:30;;;;;;;24.35;16.70;;;3.10;99.90;;;;;;5013528;28;20194;-88
2022/01/17 08:59:57;;;;;;;25.47;17.80;;;3.20;99.90;;;;;;4996112;28;20213;-88
2022/01/17 09:02:23;;;;;;;32.33;20.48;;;3.20;99.90;;;;;;5032723;28;20189;-88
2022/01/17 09:04:49;;;;;;;35.05;21.00;;;3.20;99.90;;;;;;5010436;28;20225;-88
2022/01/17 09:07:16;;;;;;;35.40;20.30;;;3.20;99.90;;;;;;5035839;28;20284;-88
2022/01/17 09:09:44;;;;;;;50.75;29.05;;;3.30;99.90;;;;;;5032604;28;20470;-88
2022/01/17 09:12:11;;;;;;;175.88;81.65;;;3.30;99.90;;;;;;5019813;28;20182;-88
2022/01/17 09:14:38;;;;;;;80.72;48.63;;;3.30;99.90;;;;;;5013380;28;21591;-88
2022/01/17 09:17:07;;;;;;;129.20;63.60;;;3.40;99.90;;;;;;5013915;28;20186;-89
2022/01/17 09:19:34;;;;;;;66.38;40.60;;;3.40;99.90;;;;;;5012704;28;20182;-88
2022/01/17 09:22:01;;;;;;;30.98;20.20;;;3.40;99.90;;;;;;5019212;28;20281;-88
2022/01/17 09:24:26;;;;;;;28.27;19.45;;;3.40;99.90;;;;;;5018548;28;20214;-88
2022/01/17 09:26:52;;;;;;;25.90;19.60;;;3.40;99.90;;;;;;5034385;28;20187;-88
2022/01/17 09:29:18;;;;;;;25.07;18.27;;;3.50;99.90;;;;;;5020054;28;20182;-88
2022/01/17 09:31:44;;;;;;;32.70;18.30;;;3.50;99.90;;;;;;5031095;28;20974;-88
2022/01/17 09:34:10;;;;;;;35.67;21.47;;;3.50;99.90;;;;;;5013864;28;20514;-89
2022/01/17 09:36:36;;;;;;;37.92;20.38;;;3.60;99.90;;;;;;5032802;28;20194;-87
2022/01/17 09:39:04;;;;;;;31.38;21.40;;;3.60;99.90;;;;;;5016994;28;20210;-88
2022/01/17 09:41:31;;;;;;;29.75;22.05;;;3.60;99.90;;;;;;5016933;28;20210;-88
2022/01/17 09:43:59;;;;;;;37.03;25.13;;;3.60;99.90;;;;;;5006793;28;20719;-87
2022/01/17 09:46:28;;;;;;;36.40;25.25;;;3.60;99.90;;;;;;5015759;28;20226;-88
2022/01/17 09:49:12;;;;;;;39.60;28.88;;;3.70;99.90;;;;;;4999918;28;20208;-87
2022/01/17 09:54:26;;;;;;;28.08;18.08;;;3.70;99.90;;;;;;5019314;28;20195;-88
2022/01/17 09:56:53;;;;;;;160.95;70.53;;;3.80;99.90;;;;;;5016707;28;20723;-88
2022/01/17 09:59:19;;;;;;;87.00;39.33;;;3.90;99.90;;;;;;5019154;28;20183;-88
2022/01/17 10:01:45;;;;;;;98.90;46.60;;;3.90;99.90;;;;;;5015609;28;20478;-88
2022/01/17 10:04:11;;;;;;;66.20;38.00;;;4.00;99.90;;;;;;5029634;28;20201;-88
2022/01/17 10:06:39;;;;;;;58.73;33.90;;;4.00;99.90;;;;;;5017307;28;20445;-88
2022/01/17 10:09:10;;;;;;;56.38;39.00;;;4.10;99.90;;;;;;5031603;28;20439;-87
2022/01/17 10:11:36;;;;;;;37.58;24.90;;;4.10;99.90;;;;;;5031963;28;20562;-88
2022/01/17 10:14:01;;;;;;;37.00;25.50;;;4.20;99.90;;;;;;5018386;28;20193;-88
2022/01/17 10:16:29;;;;;;;33.43;22.53;;;4.30;99.90;;;;;;5034070;28;20206;-87
2022/01/17 10:19:02;;;;;;;28.13;20.33;;;4.30;99.90;;;;;;5026223;28;20182;-88
2022/01/17 10:21:45;;;;;;;26.75;18.52;;;4.30;99.90;;;;;;5032104;28;20289;-88
2022/01/17 10:29:59;;;;;;;26.27;18.75;;;4.40;99.90;;;;;;5028353;28;20179;-88
2022/01/17 10:35:35;;;;;;;28.38;18.95;;;4.50;99.90;;;;;;5035179;28;20606;-88
2022/01/17 10:38:00;;;;;;;28.10;20.05;;;4.50;99.90;;;;;;5035759;28;20181;-88
2022/01/17 10:40:29;;;;;;;32.30;21.30;;;4.60;99.90;;;;;;5030484;28;20202;-88
2022/01/17 10:42:55;;;;;;;33.80;22.75;;;4.60;99.90;;;;;;5038739;28;20233;-88
2022/01/17 10:45:29;;;;;;;46.87;27.10;;;4.60;99.90;;;;;;5020327;28;21825;-88
2022/01/17 10:47:57;;;;;;;74.32;44.30;;;4.60;99.90;;;;;;5009456;28;20440;-87
2022/01/17 10:50:26;;;;;;;95.55;55.25;;;4.70;99.90;;;;;;5014311;28;20203;-88
2022/01/17 10:52:56;;;;;;;55.60;36.92;;;4.70;99.90;;;;;;5026983;28;20217;-88
2022/01/17 10:55:28;;;;;;;43.80;28.33;;;4.60;99.90;;;;;;5029941;28;20202;-88
2022/01/17 10:57:57;;;;;;;30.35;21.58;;;4.60;99.90;;;;;;5021790;28;20187;-88
2022/01/17 11:00:24;;;;;;;31.10;22.30;;;4.60;99.90;;;;;;5031880;28;20666;-88
2022/01/17 11:02:52;;;;;;;31.52;21.75;;;4.70;99.90;;;;;;5014954;28;20194;-88
2022/01/17 11:05:19;;;;;;;34.92;22.83;;;4.70;99.90;;;;;;5025991;28;20233;-88
2022/01/17 11:07:47;;;;;;;29.90;21.33;;;4.70;99.90;;;;;;5019269;28;20341;-88
2022/01/17 11:10:39;;;;;;;37.67;27.08;;;4.70;99.90;;;;;;5013927;28;20206;-87
2022/01/17 11:13:08;;;;;;;34.95;23.25;;;4.70;99.90;;;;;;5010736;28;20190;-88
2022/01/17 11:15:35;;;;;;;32.80;22.20;;;4.80;99.90;;;;;;5031439;28;20199;-88
2022/01/17 11:18:10;;;;;;;34.25;25.17;;;4.80;99.90;;;;;;5014850;28;20266;-88
2022/01/17 11:20:36;;;;;;;39.80;25.23;;;4.80;99.90;;;;;;5017099;28;20210;-88
2022/01/17 11:23:03;;;;;;;37.90;25.70;;;4.80;99.90;;;;;;5022390;28;20214;-88
2022/01/17 11:25:33;;;;;;;36.00;23.27;;;4.80;99.90;;;;;;5007406;28;20229;-88
2022/01/17 11:28:00;;;;;;;37.97;25.58;;;4.80;99.90;;;;;;5033636;28;20175;-88
2022/01/17 11:30:27;;;;;;;33.53;24.88;;;4.80;99.90;;;;;;5002543;28;20211;-88
2022/01/17 11:32:55;;;;;;;36.75;25.67;;;4.80;99.90;;;;;;5016911;28;20197;-88
2022/01/17 11:35:23;;;;;;;45.35;28.52;;;4.70;99.90;;;;;;5030087;28;20233;-88
2022/01/17 11:37:54;;;;;;;35.30;24.70;;;4.70;99.90;;;;;;5021511;28;20232;-88
2022/01/17 11:40:30;;;;;;;33.22;22.65;;;4.70;99.90;;;;;;5023296;28;20198;-88
2022/01/17 11:42:59;;;;;;;29.90;21.15;;;4.80;99.90;;;;;;5013686;28;20189;-90
2022/01/17 11:45:24;;;;;;;33.22;23.55;;;4.80;99.90;;;;;;5037600;28;20234;-89
2022/01/17 11:48:17;;;;;;;33.93;22.80;;;4.80;99.90;;;;;;5014423;28;20186;-90
2022/01/17 11:50:46;;;;;;;31.38;21.63;;;4.90;99.90;;;;;;5009954;28;20206;-89
2022/01/17 11:53:11;;;;;;;33.20;22.08;;;4.90;99.90;;;;;;5023761;28;20187;-88
2022/01/17 11:55:41;;;;;;;32.10;21.30;;;5.00;99.90;;;;;;5023668;28;20207;-89
2022/01/17 11:58:29;;;;;;;32.33;20.50;;;5.00;99.90;;;;;;5029068;28;20183;-89
2022/01/17 12:00:57;;;;;;;28.98;21.27;;;5.10;99.90;;;;;;5026937;28;20213;-89
2022/01/17 12:03:37;;;;;;;30.48;20.08;;;5.10;99.90;;;;;;5007948;28;20190;-90
2022/01/17 12:06:16;;;;;;;29.75;21.33;;;5.20;99.90;;;;;;5006853;28;20214;-89
2022/01/17 12:08:42;;;;;;;29.52;19.40;;;5.20;99.90;;;;;;5025959;28;20249;-88
2022/01/17 12:11:07;;;;;;;29.87;21.47;;;5.30;99.90;;;;;;5021095;28;20232;-89
2022/01/17 12:13:44;;;;;;;30.70;19.67;;;5.40;99.90;;;;;;5014715;28;20320;-90
2022/01/17 12:16:27;;;;;;;39.50;25.70;;;5.40;99.90;;;;;;5025334;28;20205;-89
2022/01/17 12:19:03;;;;;;;32.50;21.45;;;5.40;99.90;;;;;;5035625;28;20228;-90
2022/01/17 12:21:40;;;;;;;30.80;21.42;;;5.40;99.90;;;;;;5013711;28;20690;-89
2022/01/17 12:24:34;;;;;;;32.92;20.90;;;5.40;99.90;;;;;;5005343;28;20182;-89
2022/01/17 12:27:01;;;;;;;33.80;24.27;;;5.40;99.90;;;;;;5010373;28;20202;-89
2022/01/17 12:29:55;;;;;;;29.58;23.00;;;5.40;99.90;;;;;;5014049;28;20189;-90
2022/01/17 12:32:23;;;;;;;30.58;22.20;;;5.40;99.90;;;;;;5002046;28;20201;-90
2022/01/17 12:34:51;;;;;;;37.35;26.00;;;5.40;99.90;;;;;;5032010;28;20668;-89
2022/01/17 12:37:41;;;;;;;29.95;20.40;;;5.40;99.90;;;;;;5024181;28;20563;-89
2022/01/17 12:40:19;;;;;;;29.98;20.70;;;5.40;99.90;;;;;;5026667;28;20245;-89
2022/01/17 12:42:56;;;;;;;30.85;19.40;;;5.40;99.90;;;;;;5046842;28;20171;-89
2022/01/17 12:45:24;;;;;;;30.48;19.90;;;5.40;99.90;;;;;;5021335;28;20230;-89
2022/01/17 12:47:51;;;;;;;25.45;17.48;;;5.50;99.90;;;;;;5018504;28;20189;-89
2022/01/17 12:50:22;;;;;;;30.80;19.15;;;5.50;99.90;;;;;;5027371;28;20267;-89
2022/01/17 12:52:52;;;;;;;28.65;21.52;;;5.50;99.90;;;;;;5023065;28;20198;-89
2022/01/17 12:55:18;;;;;;;30.25;20.83;;;5.50;99.90;;;;;;5011056;28;20202;-90
2022/01/17 12:57:45;;;;;;;39.17;27.25;;;5.60;99.90;;;;;;5014854;28;20220;-90
2022/01/17 13:00:26;;;;;;;37.25;22.52;;;5.60;99.90;;;;;;5013718;28;20284;-90